sensor_id;sensor_type;location;lat;lon;timestamp;P1;durP1;ratioP1;P2;durP2;ratioP2
57113;SDS011;42994;51.606;9.988;2023-04-25T00:01:44;12.98;;;5.53;;
57113;SDS011;42994;51.606;9.988;2023-04-25T00:04:11;12.10;;;4.40;;
57113;SDS011;42994;51.606;9.988;2023-04-25T00:06:38;9.52;;;4.72;;
57113;SDS011;42994;51.606;9.988;2023-04-25T00:09:05;13.88;;;4.97;;
57113;SDS011;42994;51.606;9.988;2023-04-25T00:11:34;9.25;;;4.72;;
57113;SDS011;42994;51.606;9.988;2023-04-25T00:14:03;12.15;;;3.83;;
57113;SDS011;42994;51.606;9.988;2023-04-25T00:16:30;14.75;;;4.40;;
57113;SDS011;42994;51.606;9.988;2023-04-25T00:18:58;11.05;;;4.72;;
57113;SDS011;42994;51.606;9.988;2023-04-25T00:21:26;7.60;;;4.03;;
57113;SDS011;42994;51.606;9.988;2023-04-25T00:23:53;9.48;;;4.22;;
57113;SDS011;42994;51.606;9.988;2023-04-25T00:26:20;12.40;;;3.85;;
57113;SDS011;42994;51.606;9.988;2023-04-25T00:28:46;10.18;;;4.45;;
57113;SDS011;42994;51.606;9.988;2023-04-25T00:31:14;10.10;;;4.50;;
57113;SDS011;42994;51.606;9.988;2023-04-25T00:33:41;14.60;;;5.05;;
57113;SDS011;42994;51.606;9.988;2023-04-25T00:36:08;11.35;;;4.72;;
57113;SDS011;42994;51.606;9.988;2023-04-25T00:38:35;13.55;;;4.35;;
57113;SDS011;42994;51.606;9.988;2023-04-25T00:41:04;13.90;;;4.40;;
57113;SDS011;42994;51.606;9.988;2023-04-25T00:43:31;7.75;;;4.20;;
57113;SDS011;42994;51.606;9.988;2023-04-25T00:46:00;15.38;;;4.88;;
57113;SDS011;42994;51.606;9.988;2023-04-25T00:48:28;11.02;;;4.72;;
57113;SDS011;42994;51.606;9.988;2023-04-25T00:50:56;16.58;;;5.63;;
57113;SDS011;42994;51.606;9.988;2023-04-25T00:53:25;14.25;;;4.63;;
57113;SDS011;42994;51.606;9.988;2023-04-25T00:55:53;11.50;;;5.07;;
57113;SDS011;42994;51.606;9.988;2023-04-25T00:58:21;15.88;;;6.05;;
57113;SDS011;42994;51.606;9.988;2023-04-25T01:00:49;10.52;;;4.90;;
57113;SDS011;42994;51.606;9.988;2023-04-25T01:03:17;10.05;;;4.90;;
57113;SDS011;42994;51.606;9.988;2023-04-25T01:05:46;9.63;;;4.55;;
57113;SDS011;42994;51.606;9.988;2023-04-25T01:08:13;16.30;;;5.22;;
57113;SDS011;42994;51.606;9.988;2023-04-25T01:10:40;16.52;;;5.22;;
57113;SDS011;42994;51.606;9.988;2023-04-25T01:13:07;16.65;;;6.03;;
57113;SDS011;42994;51.606;9.988;2023-04-25T01:15:34;9.57;;;5.40;;
57113;SDS011;42994;51.606;9.988;2023-04-25T01:18:01;11.93;;;5.28;;
57113;SDS011;42994;51.606;9.988;2023-04-25T01:20:29;17.60;;;5.65;;
57113;SDS011;42994;51.606;9.988;2023-04-25T01:22:59;17.85;;;6.60;;
57113;SDS011;42994;51.606;9.988;2023-04-25T01:25:27;17.45;;;6.07;;
57113;SDS011;42994;51.606;9.988;2023-04-25T01:27:54;23.23;;;8.10;;
57113;SDS011;42994;51.606;9.988;2023-04-25T01:30:21;17.80;;;7.40;;
57113;SDS011;42994;51.606;9.988;2023-04-25T01:32:48;13.40;;;5.28;;
57113;SDS011;42994;51.606;9.988;2023-04-25T01:35:15;14.38;;;6.28;;
57113;SDS011;42994;51.606;9.988;2023-04-25T01:37:42;15.23;;;6.35;;
57113;SDS011;42994;51.606;9.988;2023-04-25T01:40:12;16.63;;;6.10;;
57113;SDS011;42994;51.606;9.988;2023-04-25T01:42:40;20.58;;;7.72;;
57113;SDS011;42994;51.606;9.988;2023-04-25T01:45:09;14.35;;;5.82;;
57113;SDS011;42994;51.606;9.988;2023-04-25T01:47:37;12.55;;;6.07;;
57113;SDS011;42994;51.606;9.988;2023-04-25T01:50:05;18.15;;;6.07;;
57113;SDS011;42994;51.606;9.988;2023-04-25T01:52:35;15.55;;;6.10;;
57113;SDS011;42994;51.606;9.988;2023-04-25T01:55:02;25.63;;;8.55;;
57113;SDS011;42994;51.606;9.988;2023-04-25T01:57:33;14.20;;;6.78;;
57113;SDS011;42994;51.606;9.988;2023-04-25T02:00:02;13.85;;;7.45;;
57113;SDS011;42994;51.606;9.988;2023-04-25T02:02:37;19.25;;;6.78;;
57113;SDS011;42994;51.606;9.988;2023-04-25T02:05:08;17.45;;;7.20;;
57113;SDS011;42994;51.606;9.988;2023-04-25T02:07:38;14.98;;;5.97;;
57113;SDS011;42994;51.606;9.988;2023-04-25T02:10:06;16.92;;;7.47;;
57113;SDS011;42994;51.606;9.988;2023-04-25T02:12:39;27.30;;;8.50;;
57113;SDS011;42994;51.606;9.988;2023-04-25T02:15:23;19.08;;;7.82;;
57113;SDS011;42994;51.606;9.988;2023-04-25T02:17:54;15.77;;;7.30;;
57113;SDS011;42994;51.606;9.988;2023-04-25T02:20:21;21.08;;;7.65;;
57113;SDS011;42994;51.606;9.988;2023-04-25T02:22:48;23.80;;;7.53;;
57113;SDS011;42994;51.606;9.988;2023-04-25T02:25:15;17.17;;;8.80;;
57113;SDS011;42994;51.606;9.988;2023-04-25T02:27:44;17.17;;;8.23;;
57113;SDS011;42994;51.606;9.988;2023-04-25T02:30:11;18.85;;;8.10;;
57113;SDS011;42994;51.606;9.988;2023-04-25T02:32:38;21.25;;;8.80;;
57113;SDS011;42994;51.606;9.988;2023-04-25T02:35:05;19.90;;;8.60;;
57113;SDS011;42994;51.606;9.988;2023-04-25T02:37:33;18.70;;;7.85;;
57113;SDS011;42994;51.606;9.988;2023-04-25T02:40:01;19.35;;;7.90;;
57113;SDS011;42994;51.606;9.988;2023-04-25T02:42:30;18.02;;;9.50;;
57113;SDS011;42994;51.606;9.988;2023-04-25T02:44:59;21.08;;;8.27;;
57113;SDS011;42994;51.606;9.988;2023-04-25T02:47:25;20.55;;;8.88;;
57113;SDS011;42994;51.606;9.988;2023-04-25T02:49:52;17.10;;;7.75;;
57113;SDS011;42994;51.606;9.988;2023-04-25T02:52:19;14.65;;;7.45;;
57113;SDS011;42994;51.606;9.988;2023-04-25T02:54:53;19.15;;;8.57;;
57113;SDS011;42994;51.606;9.988;2023-04-25T02:57:19;21.58;;;8.70;;
57113;SDS011;42994;51.606;9.988;2023-04-25T02:59:46;22.52;;;9.10;;
57113;SDS011;42994;51.606;9.988;2023-04-25T03:02:14;19.23;;;8.57;;
57113;SDS011;42994;51.606;9.988;2023-04-25T03:04:40;17.23;;;7.82;;
57113;SDS011;42994;51.606;9.988;2023-04-25T03:07:07;23.08;;;9.10;;
57113;SDS011;42994;51.606;9.988;2023-04-25T03:09:34;18.30;;;7.70;;
57113;SDS011;42994;51.606;9.988;2023-04-25T03:12:01;20.35;;;8.50;;
57113;SDS011;42994;51.606;9.988;2023-04-25T03:14:30;15.00;;;7.30;;
57113;SDS011;42994;51.606;9.988;2023-04-25T03:16:57;18.63;;;7.55;;
57113;SDS011;42994;51.606;9.988;2023-04-25T03:19:25;17.30;;;9.10;;
57113;SDS011;42994;51.606;9.988;2023-04-25T03:21:52;17.30;;;8.50;;
57113;SDS011;42994;51.606;9.988;2023-04-25T03:24:19;19.38;;;8.50;;
57113;SDS011;42994;51.606;9.988;2023-04-25T03:26:47;19.08;;;8.25;;
57113;SDS011;42994;51.606;9.988;2023-04-25T03:29:14;18.75;;;8.90;;
57113;SDS011;42994;51.606;9.988;2023-04-25T03:31:42;15.82;;;8.65;;
57113;SDS011;42994;51.606;9.988;2023-04-25T03:34:09;17.38;;;8.23;;
57113;SDS011;42994;51.606;9.988;2023-04-25T03:36:37;18.17;;;7.70;;
57113;SDS011;42994;51.606;9.988;2023-04-25T03:39:03;19.77;;;7.63;;
57113;SDS011;42994;51.606;9.988;2023-04-25T03:41:31;14.40;;;7.70;;
57113;SDS011;42994;51.606;9.988;2023-04-25T03:44:06;21.77;;;9.30;;
57113;SDS011;42994;51.606;9.988;2023-04-25T03:46:33;18.92;;;9.10;;
57113;SDS011;42994;51.606;9.988;2023-04-25T03:49:00;15.18;;;8.15;;
57113;SDS011;42994;51.606;9.988;2023-04-25T03:51:42;14.85;;;8.38;;
57113;SDS011;42994;51.606;9.988;2023-04-25T03:54:09;20.23;;;7.90;;
57113;SDS011;42994;51.606;9.988;2023-04-25T03:56:38;13.02;;;8.50;;
57113;SDS011;42994;51.606;9.988;2023-04-25T03:59:15;13.35;;;8.52;;
57113;SDS011;42994;51.606;9.988;2023-04-25T04:01:42;16.73;;;7.78;;
57113;SDS011;42994;51.606;9.988;2023-04-25T04:04:08;22.00;;;9.38;;
57113;SDS011;42994;51.606;9.988;2023-04-25T04:06:35;15.80;;;8.85;;
57113;SDS011;42994;51.606;9.988;2023-04-25T04:09:24;22.92;;;9.68;;
57113;SDS011;42994;51.606;9.988;2023-04-25T04:11:51;17.40;;;8.93;;
57113;SDS011;42994;51.606;9.988;2023-04-25T04:14:18;16.63;;;8.73;;
57113;SDS011;42994;51.606;9.988;2023-04-25T04:16:47;16.42;;;8.90;;
57113;SDS011;42994;51.606;9.988;2023-04-25T04:19:14;19.63;;;9.65;;
57113;SDS011;42994;51.606;9.988;2023-04-25T04:21:46;18.80;;;9.13;;
57113;SDS011;42994;51.606;9.988;2023-04-25T04:24:13;19.38;;;9.25;;
57113;SDS011;42994;51.606;9.988;2023-04-25T04:27:00;18.55;;;8.80;;
57113;SDS011;42994;51.606;9.988;2023-04-25T04:29:35;19.10;;;9.30;;
57113;SDS011;42994;51.606;9.988;2023-04-25T04:32:09;16.88;;;9.13;;
57113;SDS011;42994;51.606;9.988;2023-04-25T04:34:36;18.90;;;9.77;;
57113;SDS011;42994;51.606;9.988;2023-04-25T04:37:03;20.25;;;10.80;;
57113;SDS011;42994;51.606;9.988;2023-04-25T04:39:30;16.38;;;9.82;;
57113;SDS011;42994;51.606;9.988;2023-04-25T04:42:07;19.00;;;10.75;;
57113;SDS011;42994;51.606;9.988;2023-04-25T04:44:44;18.88;;;10.57;;
57113;SDS011;42994;51.606;9.988;2023-04-25T04:47:22;21.15;;;11.00;;
57113;SDS011;42994;51.606;9.988;2023-04-25T04:50:08;20.42;;;10.38;;
57113;SDS011;42994;51.606;9.988;2023-04-25T04:52:54;17.98;;;9.98;;
57113;SDS011;42994;51.606;9.988;2023-04-25T04:55:42;17.05;;;9.98;;
57113;SDS011;42994;51.606;9.988;2023-04-25T04:58:29;19.05;;;10.82;;
57113;SDS011;42994;51.606;9.988;2023-04-25T05:01:21;18.30;;;10.90;;
57113;SDS011;42994;51.606;9.988;2023-04-25T05:04:14;17.27;;;10.57;;
57113;SDS011;42994;51.606;9.988;2023-04-25T05:07:02;20.77;;;11.40;;
57113;SDS011;42994;51.606;9.988;2023-04-25T05:09:48;17.77;;;10.80;;
57113;SDS011;42994;51.606;9.988;2023-04-25T05:12:41;17.42;;;10.73;;
57113;SDS011;42994;51.606;9.988;2023-04-25T05:15:37;23.17;;;11.43;;
57113;SDS011;42994;51.606;9.988;2023-04-25T05:18:15;20.17;;;10.88;;
57113;SDS011;42994;51.606;9.988;2023-04-25T05:20:55;18.73;;;10.25;;
57113;SDS011;42994;51.606;9.988;2023-04-25T05:23:43;18.55;;;10.48;;
57113;SDS011;42994;51.606;9.988;2023-04-25T05:26:30;21.70;;;10.27;;
57113;SDS011;42994;51.606;9.988;2023-04-25T05:29:05;18.63;;;10.02;;
57113;SDS011;42994;51.606;9.988;2023-04-25T05:31:37;15.48;;;9.68;;
57113;SDS011;42994;51.606;9.988;2023-04-25T05:34:10;17.92;;;9.00;;
57113;SDS011;42994;51.606;9.988;2023-04-25T05:36:49;21.10;;;10.00;;
57113;SDS011;42994;51.606;9.988;2023-04-25T05:39:16;16.67;;;8.20;;
57113;SDS011;42994;51.606;9.988;2023-04-25T05:42:02;18.33;;;6.47;;
57113;SDS011;42994;51.606;9.988;2023-04-25T05:44:47;16.33;;;5.70;;
57113;SDS011;42994;51.606;9.988;2023-04-25T05:47:34;14.77;;;6.00;;
57113;SDS011;42994;51.606;9.988;2023-04-25T05:50:23;15.48;;;4.85;;
57113;SDS011;42994;51.606;9.988;2023-04-25T05:52:58;16.40;;;5.45;;
57113;SDS011;42994;51.606;9.988;2023-04-25T05:55:30;11.63;;;4.30;;
57113;SDS011;42994;51.606;9.988;2023-04-25T05:58:00;17.17;;;5.57;;
57113;SDS011;42994;51.606;9.988;2023-04-25T06:00:27;23.00;;;5.00;;
57113;SDS011;42994;51.606;9.988;2023-04-25T06:02:55;22.30;;;5.38;;
57113;SDS011;42994;51.606;9.988;2023-04-25T06:05:23;21.85;;;5.10;;
57113;SDS011;42994;51.606;9.988;2023-04-25T06:07:50;15.45;;;5.05;;
57113;SDS011;42994;51.606;9.988;2023-04-25T06:10:16;24.10;;;4.45;;
57113;SDS011;42994;51.606;9.988;2023-04-25T06:12:43;12.63;;;4.55;;
57113;SDS011;42994;51.606;9.988;2023-04-25T06:15:12;15.43;;;4.03;;
57113;SDS011;42994;51.606;9.988;2023-04-25T06:17:38;19.42;;;5.45;;
57113;SDS011;42994;51.606;9.988;2023-04-25T06:20:08;14.43;;;5.30;;
57113;SDS011;42994;51.606;9.988;2023-04-25T06:22:36;16.70;;;3.78;;
57113;SDS011;42994;51.606;9.988;2023-04-25T06:25:02;22.20;;;4.43;;
57113;SDS011;42994;51.606;9.988;2023-04-25T06:27:31;24.95;;;5.25;;
57113;SDS011;42994;51.606;9.988;2023-04-25T06:29:58;19.00;;;4.22;;
57113;SDS011;42994;51.606;9.988;2023-04-25T06:32:25;22.48;;;4.63;;
57113;SDS011;42994;51.606;9.988;2023-04-25T06:34:56;20.85;;;4.50;;
57113;SDS011;42994;51.606;9.988;2023-04-25T06:37:24;24.88;;;5.65;;
57113;SDS011;42994;51.606;9.988;2023-04-25T06:39:51;18.67;;;4.65;;
57113;SDS011;42994;51.606;9.988;2023-04-25T06:42:18;20.88;;;4.95;;
57113;SDS011;42994;51.606;9.988;2023-04-25T06:44:51;19.48;;;5.00;;
57113;SDS011;42994;51.606;9.988;2023-04-25T06:47:19;24.67;;;5.40;;
57113;SDS011;42994;51.606;9.988;2023-04-25T06:49:47;23.42;;;5.28;;
57113;SDS011;42994;51.606;9.988;2023-04-25T06:52:14;20.58;;;5.93;;
57113;SDS011;42994;51.606;9.988;2023-04-25T06:54:44;22.13;;;4.38;;
57113;SDS011;42994;51.606;9.988;2023-04-25T06:57:34;15.00;;;3.70;;
57113;SDS011;42994;51.606;9.988;2023-04-25T07:00:19;26.13;;;5.60;;
57113;SDS011;42994;51.606;9.988;2023-04-25T07:02:46;13.95;;;4.38;;
57113;SDS011;42994;51.606;9.988;2023-04-25T07:05:13;11.93;;;3.47;;
57113;SDS011;42994;51.606;9.988;2023-04-25T07:07:41;14.15;;;3.92;;
57113;SDS011;42994;51.606;9.988;2023-04-25T07:10:09;18.58;;;4.07;;
57113;SDS011;42994;51.606;9.988;2023-04-25T07:12:35;13.68;;;3.58;;
57113;SDS011;42994;51.606;9.988;2023-04-25T07:15:04;15.25;;;4.50;;
57113;SDS011;42994;51.606;9.988;2023-04-25T07:17:40;15.77;;;3.90;;
57113;SDS011;42994;51.606;9.988;2023-04-25T07:20:07;15.38;;;3.33;;
57113;SDS011;42994;51.606;9.988;2023-04-25T07:22:35;18.40;;;4.00;;
57113;SDS011;42994;51.606;9.988;2023-04-25T07:25:03;21.60;;;4.43;;
57113;SDS011;42994;51.606;9.988;2023-04-25T07:27:33;19.77;;;3.60;;
57113;SDS011;42994;51.606;9.988;2023-04-25T07:30:06;17.65;;;3.92;;
57113;SDS011;42994;51.606;9.988;2023-04-25T07:32:38;17.23;;;3.63;;
57113;SDS011;42994;51.606;9.988;2023-04-25T07:35:05;18.13;;;3.58;;
57113;SDS011;42994;51.606;9.988;2023-04-25T07:37:33;22.67;;;4.03;;
57113;SDS011;42994;51.606;9.988;2023-04-25T07:40:06;18.05;;;4.82;;
57113;SDS011;42994;51.606;9.988;2023-04-25T07:42:37;10.50;;;3.00;;
57113;SDS011;42994;51.606;9.988;2023-04-25T07:45:05;9.60;;;2.92;;
57113;SDS011;42994;51.606;9.988;2023-04-25T07:47:33;19.70;;;3.70;;
57113;SDS011;42994;51.606;9.988;2023-04-25T07:49:59;17.05;;;3.08;;
57113;SDS011;42994;51.606;9.988;2023-04-25T07:52:26;17.48;;;3.53;;
57113;SDS011;42994;51.606;9.988;2023-04-25T07:55:01;18.15;;;3.85;;
57113;SDS011;42994;51.606;9.988;2023-04-25T07:57:41;21.55;;;4.55;;
57113;SDS011;42994;51.606;9.988;2023-04-25T08:00:08;20.70;;;4.10;;
57113;SDS011;42994;51.606;9.988;2023-04-25T08:02:38;22.77;;;4.40;;
57113;SDS011;42994;51.606;9.988;2023-04-25T08:05:10;21.25;;;3.42;;
57113;SDS011;42994;51.606;9.988;2023-04-25T08:07:43;20.92;;;4.63;;
57113;SDS011;42994;51.606;9.988;2023-04-25T08:10:10;22.83;;;5.00;;
57113;SDS011;42994;51.606;9.988;2023-04-25T08:12:38;18.92;;;4.10;;
57113;SDS011;42994;51.606;9.988;2023-04-25T08:15:08;14.13;;;3.08;;
57113;SDS011;42994;51.606;9.988;2023-04-25T08:17:38;23.08;;;3.78;;
57113;SDS011;42994;51.606;9.988;2023-04-25T08:20:06;17.77;;;3.67;;
57113;SDS011;42994;51.606;9.988;2023-04-25T08:22:34;19.17;;;3.90;;
57113;SDS011;42994;51.606;9.988;2023-04-25T08:25:30;17.17;;;3.72;;
57113;SDS011;42994;51.606;9.988;2023-04-25T08:27:57;17.33;;;3.90;;
57113;SDS011;42994;51.606;9.988;2023-04-25T08:30:26;12.35;;;3.10;;
57113;SDS011;42994;51.606;9.988;2023-04-25T08:32:53;10.38;;;3.03;;
57113;SDS011;42994;51.606;9.988;2023-04-25T08:35:44;8.15;;;3.00;;
57113;SDS011;42994;51.606;9.988;2023-04-25T08:38:13;11.82;;;3.35;;
57113;SDS011;42994;51.606;9.988;2023-04-25T08:40:40;15.85;;;3.00;;
57113;SDS011;42994;51.606;9.988;2023-04-25T08:43:12;8.68;;;2.88;;
57113;SDS011;42994;51.606;9.988;2023-04-25T08:45:42;15.23;;;3.17;;
57113;SDS011;42994;51.606;9.988;2023-04-25T08:48:13;12.85;;;3.67;;
57113;SDS011;42994;51.606;9.988;2023-04-25T08:50:43;15.18;;;3.20;;
57113;SDS011;42994;51.606;9.988;2023-04-25T08:53:13;13.27;;;3.03;;
57113;SDS011;42994;51.606;9.988;2023-04-25T08:55:45;12.88;;;3.55;;
57113;SDS011;42994;51.606;9.988;2023-04-25T08:58:12;22.02;;;3.60;;
57113;SDS011;42994;51.606;9.988;2023-04-25T09:00:41;12.98;;;3.05;;
57113;SDS011;42994;51.606;9.988;2023-04-25T09:03:08;13.45;;;3.00;;
57113;SDS011;42994;51.606;9.988;2023-04-25T09:05:36;9.85;;;3.15;;
57113;SDS011;42994;51.606;9.988;2023-04-25T09:08:03;9.57;;;2.53;;
57113;SDS011;42994;51.606;9.988;2023-04-25T09:10:31;11.40;;;3.28;;
57113;SDS011;42994;51.606;9.988;2023-04-25T09:13:02;11.60;;;2.22;;
57113;SDS011;42994;51.606;9.988;2023-04-25T09:15:47;8.95;;;2.35;;
57113;SDS011;42994;51.606;9.988;2023-04-25T09:18:38;12.38;;;1.85;;
57113;SDS011;42994;51.606;9.988;2023-04-25T09:21:05;8.50;;;1.83;;
57113;SDS011;42994;51.606;9.988;2023-04-25T09:23:38;5.68;;;1.83;;
57113;SDS011;42994;51.606;9.988;2023-04-25T09:26:07;14.45;;;2.92;;
57113;SDS011;42994;51.606;9.988;2023-04-25T09:28:34;8.02;;;2.35;;
57113;SDS011;42994;51.606;9.988;2023-04-25T09:31:04;5.93;;;2.05;;
57113;SDS011;42994;51.606;9.988;2023-04-25T09:33:35;8.20;;;2.00;;
57113;SDS011;42994;51.606;9.988;2023-04-25T09:36:05;7.78;;;2.22;;
57113;SDS011;42994;51.606;9.988;2023-04-25T09:38:51;9.18;;;2.30;;
57113;SDS011;42994;51.606;9.988;2023-04-25T09:41:26;6.72;;;2.15;;
57113;SDS011;42994;51.606;9.988;2023-04-25T09:43:56;18.40;;;3.00;;
57113;SDS011;42994;51.606;9.988;2023-04-25T09:46:32;11.80;;;2.88;;
57113;SDS011;42994;51.606;9.988;2023-04-25T09:48:59;9.73;;;2.60;;
57113;SDS011;42994;51.606;9.988;2023-04-25T09:51:40;10.70;;;1.90;;
57113;SDS011;42994;51.606;9.988;2023-04-25T09:54:08;13.13;;;2.92;;
57113;SDS011;42994;51.606;9.988;2023-04-25T09:56:41;11.20;;;2.60;;
57113;SDS011;42994;51.606;9.988;2023-04-25T09:59:10;7.82;;;2.55;;
57113;SDS011;42994;51.606;9.988;2023-04-25T10:01:40;7.03;;;2.60;;
57113;SDS011;42994;51.606;9.988;2023-04-25T10:04:21;4.18;;;2.15;;
57113;SDS011;42994;51.606;9.988;2023-04-25T10:06:55;9.38;;;2.28;;
57113;SDS011;42994;51.606;9.988;2023-04-25T10:09:24;14.25;;;3.10;;
57113;SDS011;42994;51.606;9.988;2023-04-25T10:11:54;13.15;;;2.28;;
57113;SDS011;42994;51.606;9.988;2023-04-25T10:14:22;9.45;;;2.30;;
57113;SDS011;42994;51.606;9.988;2023-04-25T10:16:52;11.35;;;2.55;;
57113;SDS011;42994;51.606;9.988;2023-04-25T10:19:20;11.35;;;2.38;;
57113;SDS011;42994;51.606;9.988;2023-04-25T10:21:50;8.40;;;1.83;;
57113;SDS011;42994;51.606;9.988;2023-04-25T10:24:18;10.93;;;2.33;;
57113;SDS011;42994;51.606;9.988;2023-04-25T10:26:45;10.98;;;2.60;;
57113;SDS011;42994;51.606;9.988;2023-04-25T10:29:15;15.57;;;2.10;;
57113;SDS011;42994;51.606;9.988;2023-04-25T10:31:48;11.50;;;2.88;;
57113;SDS011;42994;51.606;9.988;2023-04-25T10:34:16;6.75;;;1.98;;
57113;SDS011;42994;51.606;9.988;2023-04-25T10:36:47;14.05;;;1.90;;
57113;SDS011;42994;51.606;9.988;2023-04-25T10:39:19;3.42;;;1.38;;
57113;SDS011;42994;51.606;9.988;2023-04-25T10:41:52;7.70;;;2.17;;
57113;SDS011;42994;51.606;9.988;2023-04-25T10:44:21;15.68;;;4.13;;
57113;SDS011;42994;51.606;9.988;2023-04-25T10:46:47;11.27;;;6.13;;
57113;SDS011;42994;51.606;9.988;2023-04-25T10:52:17;6.07;;;2.67;;
57113;SDS011;42994;51.606;9.988;2023-04-25T10:54:51;11.20;;;2.15;;
57113;SDS011;42994;51.606;9.988;2023-04-25T10:57:31;7.80;;;2.10;;
57113;SDS011;42994;51.606;9.988;2023-04-25T11:00:06;9.55;;;2.50;;
57113;SDS011;42994;51.606;9.988;2023-04-25T11:02:38;4.93;;;1.77;;
57113;SDS011;42994;51.606;9.988;2023-04-25T11:05:09;9.30;;;2.47;;
57113;SDS011;42994;51.606;9.988;2023-04-25T11:07:43;10.77;;;3.80;;
57113;SDS011;42994;51.606;9.988;2023-04-25T11:10:15;7.95;;;2.28;;
57113;SDS011;42994;51.606;9.988;2023-04-25T11:12:41;10.38;;;2.15;;
57113;SDS011;42994;51.606;9.988;2023-04-25T11:15:08;15.02;;;2.05;;
57113;SDS011;42994;51.606;9.988;2023-04-25T11:17:35;13.65;;;2.10;;
57113;SDS011;42994;51.606;9.988;2023-04-25T11:20:02;9.10;;;2.20;;
57113;SDS011;42994;51.606;9.988;2023-04-25T11:22:34;14.80;;;2.03;;
57113;SDS011;42994;51.606;9.988;2023-04-25T11:25:04;7.30;;;1.90;;
57113;SDS011;42994;51.606;9.988;2023-04-25T11:27:31;11.40;;;2.92;;
57113;SDS011;42994;51.606;9.988;2023-04-25T11:29:58;11.85;;;2.47;;
57113;SDS011;42994;51.606;9.988;2023-04-25T11:32:24;6.85;;;1.80;;
57113;SDS011;42994;51.606;9.988;2023-04-25T11:34:52;8.73;;;3.58;;
57113;SDS011;42994;51.606;9.988;2023-04-25T11:37:18;6.50;;;2.17;;
57113;SDS011;42994;51.606;9.988;2023-04-25T11:39:47;10.32;;;2.25;;
57113;SDS011;42994;51.606;9.988;2023-04-25T11:42:14;10.60;;;3.42;;
57113;SDS011;42994;51.606;9.988;2023-04-25T11:44:41;9.32;;;2.00;;
57113;SDS011;42994;51.606;9.988;2023-04-25T11:47:07;8.35;;;1.70;;
57113;SDS011;42994;51.606;9.988;2023-04-25T11:49:34;5.00;;;1.55;;
57113;SDS011;42994;51.606;9.988;2023-04-25T11:52:01;5.05;;;1.88;;
57113;SDS011;42994;51.606;9.988;2023-04-25T11:54:28;7.90;;;3.17;;
57113;SDS011;42994;51.606;9.988;2023-04-25T11:56:56;11.10;;;2.15;;
57113;SDS011;42994;51.606;9.988;2023-04-25T11:59:23;14.48;;;2.88;;
57113;SDS011;42994;51.606;9.988;2023-04-25T12:01:50;7.97;;;3.13;;
57113;SDS011;42994;51.606;9.988;2023-04-25T12:04:17;9.68;;;2.55;;
57113;SDS011;42994;51.606;9.988;2023-04-25T12:06:45;9.10;;;2.97;;
57113;SDS011;42994;51.606;9.988;2023-04-25T12:09:14;10.02;;;2.38;;
57113;SDS011;42994;51.606;9.988;2023-04-25T12:11:43;7.43;;;2.30;;
57113;SDS011;42994;51.606;9.988;2023-04-25T12:14:12;7.80;;;1.95;;
57113;SDS011;42994;51.606;9.988;2023-04-25T12:16:46;6.82;;;2.20;;
57113;SDS011;42994;51.606;9.988;2023-04-25T12:19:14;5.85;;;2.45;;
57113;SDS011;42994;51.606;9.988;2023-04-25T12:21:41;8.52;;;1.95;;
57113;SDS011;42994;51.606;9.988;2023-04-25T12:24:09;7.75;;;2.15;;
57113;SDS011;42994;51.606;9.988;2023-04-25T12:26:47;6.35;;;1.73;;
57113;SDS011;42994;51.606;9.988;2023-04-25T12:29:20;6.60;;;2.15;;
57113;SDS011;42994;51.606;9.988;2023-04-25T12:31:49;5.43;;;1.70;;
57113;SDS011;42994;51.606;9.988;2023-04-25T12:34:16;7.00;;;2.00;;
57113;SDS011;42994;51.606;9.988;2023-04-25T12:36:43;9.85;;;2.47;;
57113;SDS011;42994;51.606;9.988;2023-04-25T12:39:14;9.20;;;4.18;;
57113;SDS011;42994;51.606;9.988;2023-04-25T12:41:41;21.08;;;4.28;;
57113;SDS011;42994;51.606;9.988;2023-04-25T12:44:08;4.75;;;2.08;;
57113;SDS011;42994;51.606;9.988;2023-04-25T12:46:36;9.00;;;2.35;;
57113;SDS011;42994;51.606;9.988;2023-04-25T12:49:04;6.60;;;2.20;;
57113;SDS011;42994;51.606;9.988;2023-04-25T12:51:32;7.95;;;1.98;;
57113;SDS011;42994;51.606;9.988;2023-04-25T12:53:59;3.30;;;1.90;;
57113;SDS011;42994;51.606;9.988;2023-04-25T12:56:26;6.88;;;1.90;;
57113;SDS011;42994;51.606;9.988;2023-04-25T12:58:53;4.80;;;1.63;;
57113;SDS011;42994;51.606;9.988;2023-04-25T13:01:20;8.73;;;2.45;;
57113;SDS011;42994;51.606;9.988;2023-04-25T13:03:49;7.13;;;1.63;;
57113;SDS011;42994;51.606;9.988;2023-04-25T13:06:16;2.67;;;1.65;;
57113;SDS011;42994;51.606;9.988;2023-04-25T13:08:44;5.53;;;1.80;;
57113;SDS011;42994;51.606;9.988;2023-04-25T13:11:11;6.03;;;1.50;;
57113;SDS011;42994;51.606;9.988;2023-04-25T13:13:39;3.75;;;1.65;;
57113;SDS011;42994;51.606;9.988;2023-04-25T13:16:06;3.47;;;1.85;;
57113;SDS011;42994;51.606;9.988;2023-04-25T13:18:33;9.07;;;1.75;;
57113;SDS011;42994;51.606;9.988;2023-04-25T13:21:01;5.20;;;1.50;;
57113;SDS011;42994;51.606;9.988;2023-04-25T13:23:28;6.20;;;1.90;;
57113;SDS011;42994;51.606;9.988;2023-04-25T13:25:55;5.15;;;1.60;;
57113;SDS011;42994;51.606;9.988;2023-04-25T13:28:22;4.05;;;1.75;;
57113;SDS011;42994;51.606;9.988;2023-04-25T13:30:49;5.20;;;1.35;;
57113;SDS011;42994;51.606;9.988;2023-04-25T13:33:16;11.43;;;3.30;;
57113;SDS011;42994;51.606;9.988;2023-04-25T13:35:43;9.85;;;4.50;;
57113;SDS011;42994;51.606;9.988;2023-04-25T13:38:13;8.20;;;1.50;;
57113;SDS011;42994;51.606;9.988;2023-04-25T13:40:39;10.85;;;2.40;;
57113;SDS011;42994;51.606;9.988;2023-04-25T13:43:06;3.20;;;1.50;;
57113;SDS011;42994;51.606;9.988;2023-04-25T13:45:33;5.78;;;1.50;;
57113;SDS011;42994;51.606;9.988;2023-04-25T13:48:00;7.57;;;1.75;;
57113;SDS011;42994;51.606;9.988;2023-04-25T13:50:26;3.63;;;1.40;;
57113;SDS011;42994;51.606;9.988;2023-04-25T13:52:53;4.85;;;1.58;;
57113;SDS011;42994;51.606;9.988;2023-04-25T13:55:21;5.75;;;1.67;;
57113;SDS011;42994;51.606;9.988;2023-04-25T13:57:48;4.28;;;1.58;;
57113;SDS011;42994;51.606;9.988;2023-04-25T14:00:15;8.63;;;2.25;;
57113;SDS011;42994;51.606;9.988;2023-04-25T14:02:42;4.85;;;1.42;;
57113;SDS011;42994;51.606;9.988;2023-04-25T14:05:08;9.70;;;1.92;;
57113;SDS011;42994;51.606;9.988;2023-04-25T14:07:35;8.95;;;1.70;;
57113;SDS011;42994;51.606;9.988;2023-04-25T14:10:02;4.90;;;1.40;;
57113;SDS011;42994;51.606;9.988;2023-04-25T14:12:32;4.22;;;1.42;;
57113;SDS011;42994;51.606;9.988;2023-04-25T14:14:58;3.63;;;2.15;;
57113;SDS011;42994;51.606;9.988;2023-04-25T14:17:25;2.65;;;1.25;;
57113;SDS011;42994;51.606;9.988;2023-04-25T14:19:52;6.32;;;2.38;;
57113;SDS011;42994;51.606;9.988;2023-04-25T14:22:20;2.33;;;1.58;;
57113;SDS011;42994;51.606;9.988;2023-04-25T14:24:46;4.95;;;1.63;;
57113;SDS011;42994;51.606;9.988;2023-04-25T14:27:13;5.40;;;1.35;;
57113;SDS011;42994;51.606;9.988;2023-04-25T14:29:41;4.00;;;2.05;;
57113;SDS011;42994;51.606;9.988;2023-04-25T14:32:08;6.75;;;2.20;;
57113;SDS011;42994;51.606;9.988;2023-04-25T14:34:35;3.30;;;1.35;;
57113;SDS011;42994;51.606;9.988;2023-04-25T14:37:02;7.43;;;2.10;;
57113;SDS011;42994;51.606;9.988;2023-04-25T14:39:28;3.63;;;1.08;;
57113;SDS011;42994;51.606;9.988;2023-04-25T14:41:55;1.85;;;1.15;;
57113;SDS011;42994;51.606;9.988;2023-04-25T14:44:21;3.95;;;1.50;;
57113;SDS011;42994;51.606;9.988;2023-04-25T14:46:49;4.00;;;1.20;;
57113;SDS011;42994;51.606;9.988;2023-04-25T14:49:17;3.35;;;1.42;;
57113;SDS011;42994;51.606;9.988;2023-04-25T14:51:44;1.50;;;1.23;;
57113;SDS011;42994;51.606;9.988;2023-04-25T14:54:10;4.22;;;1.25;;
57113;SDS011;42994;51.606;9.988;2023-04-25T14:56:37;2.80;;;1.30;;
57113;SDS011;42994;51.606;9.988;2023-04-25T14:59:03;7.55;;;1.45;;